createdAt,value
2018-07-21T00:02:27.021Z,99778.42
2018-07-21T00:07:31.918Z,99781.06
2018-07-21T00:12:36.114Z,99778.72
2018-07-21T00:17:39.712Z,99774.11
2018-07-21T00:22:43.566Z,99766.78
2018-07-21T00:27:47.866Z,99764.61
2018-07-21T00:32:51.478Z,99756.51
2018-07-21T00:37:55.995Z,99761.64
2018-07-21T00:43:00.242Z,99756.84
2018-07-21T00:48:04.966Z,99749.53
2018-07-21T00:53:08.518Z,99761.66
2018-07-21T00:58:12.163Z,99760.06
2018-07-21T01:03:16.422Z,99754.60
2018-07-21T01:08:20.273Z,99757.00
2018-07-21T01:13:25.190Z,99756.98
2018-07-21T01:18:30.348Z,99748.05
2018-07-21T01:23:34.350Z,99745.18
2018-07-21T01:28:39.429Z,99737.80
2018-07-21T01:33:43.437Z,99731.21
2018-07-21T01:38:47.923Z,99738.30
2018-07-21T01:43:51.532Z,99741.58
2018-07-21T01:48:56.087Z,99734.19
2018-07-21T01:54:00.007Z,99745.15
2018-07-21T01:59:04.066Z,99740.20
2018-07-21T02:04:08.058Z,99748.38
2018-07-21T02:09:12.794Z,99748.19
2018-07-21T02:14:17.512Z,99746.26
2018-07-21T02:19:21.398Z,99746.72
2018-07-21T02:24:24.996Z,99741.55
2018-07-21T02:29:29.652Z,99747.65
2018-07-21T02:34:34.127Z,99745.59
2018-07-21T02:39:38.969Z,99752.08
2018-07-21T02:44:42.702Z,99752.57
2018-07-21T02:49:46.667Z,99753.97
2018-07-21T02:54:51.206Z,99752.78
2018-07-21T02:59:54.772Z,99744.66
2018-07-21T03:04:58.485Z,99739.48
2018-07-21T03:10:04.501Z,99739.15
2018-07-21T03:15:08.370Z,99732.91
2018-07-21T03:20:12.408Z,99731.77
2018-07-21T03:25:16.602Z,99722.41
2018-07-21T03:30:20.561Z,99709.96
2018-07-21T03:35:24.182Z,99712.08
2018-07-21T03:40:28.086Z,99721.00
2018-07-21T03:45:31.643Z,99709.31
2018-07-21T03:50:35.442Z,99703.20
2018-07-21T03:55:39.427Z,99704.83
2018-07-21T04:00:43.251Z,99714.48
2018-07-21T04:05:46.960Z,99708.02
2018-07-21T04:10:51.146Z,99704.25
2018-07-21T04:15:55.090Z,99697.81
2018-07-21T04:20:58.844Z,99692.81
2018-07-21T04:26:02.385Z,99689.63
2018-07-21T04:31:06.147Z,99690.06
2018-07-21T04:36:09.695Z,99699.84
2018-07-21T04:41:13.285Z,99699.69
2018-07-21T04:46:17.385Z,99711.89
2018-07-21T04:51:21.354Z,99712.59
2018-07-21T04:56:24.902Z,99708.36
2018-07-21T05:01:29.372Z,99700.27
2018-07-21T05:06:33.975Z,99694.92
2018-07-21T05:11:38.022Z,99698.17
2018-07-21T05:16:41.646Z,99701.99
2018-07-21T05:21:45.743Z,99697.63
2018-07-21T05:26:49.402Z,99690.63
2018-07-21T05:31:52.967Z,99676.61
2018-07-21T05:37:23.148Z,99689.59
2018-07-21T05:42:27.188Z,99686.09
2018-07-21T05:47:31.000Z,99682.05
2018-07-21T05:52:35.302Z,99694.23
2018-07-21T05:57:39.125Z,99692.34
2018-07-21T06:02:43.366Z,99697.23
2018-07-21T06:07:47.065Z,99700.72
2018-07-21T06:12:51.187Z,99697.00
2018-07-21T06:17:54.710Z,99690.23
2018-07-21T06:22:58.649Z,99696.15
2018-07-21T06:28:02.824Z,99693.98
2018-07-21T06:33:06.482Z,99694.52
2018-07-21T06:38:10.053Z,99692.31
2018-07-21T06:43:14.339Z,99699.08
2018-07-21T06:48:17.850Z,99702.27
2018-07-21T06:53:21.363Z,99712.50
2018-07-21T06:58:24.996Z,99714.29
2018-07-21T07:03:28.501Z,99714.50
2018-07-21T07:08:32.141Z,99713.42
2018-07-21T07:13:35.737Z,99714.72
2018-07-21T07:18:39.400Z,99720.06
2018-07-21T07:23:43.068Z,99718.61
2018-07-21T07:28:46.735Z,99718.99
2018-07-21T07:33:50.733Z,99719.77
2018-07-21T07:38:54.822Z,99723.20
2018-07-21T07:43:58.502Z,99712.75
2018-07-21T07:49:02.147Z,99715.84
2018-07-21T07:54:05.687Z,99717.85
2018-07-21T07:59:09.162Z,99721.22
2018-07-21T08:04:12.650Z,99720.81
2018-07-21T08:09:16.199Z,99714.91
2018-07-21T08:14:20.506Z,99715.31
2018-07-21T08:19:24.334Z,99721.36
2018-07-21T08:24:28.852Z,99718.73
2018-07-21T08:29:32.977Z,99723.77
2018-07-21T08:34:36.963Z,99720.02
2018-07-21T08:39:41.025Z,99723.98
2018-07-21T08:44:45.004Z,99716.67
2018-07-21T08:49:48.926Z,99711.84
2018-07-21T08:54:54.677Z,99709.84
2018-07-21T09:00:13.550Z,99716.55
2018-07-21T09:05:19.581Z,99714.27
2018-07-21T09:10:24.762Z,99708.76
2018-07-21T09:15:28.890Z,99699.47
2018-07-21T09:20:32.730Z,99701.27
2018-07-21T09:25:36.809Z,99695.19
2018-07-21T09:30:40.772Z,99691.58
2018-07-21T09:35:44.734Z,99688.35
2018-07-21T09:40:48.598Z,99691.41
2018-07-21T09:45:52.691Z,99696.78
2018-07-21T09:50:56.568Z,99690.54
2018-07-21T09:56:00.671Z,99691.78
2018-07-21T10:01:05.228Z,99699.56
2018-07-21T10:06:09.022Z,99697.59
2018-07-21T10:11:12.846Z,99696.48
2018-07-21T10:16:16.654Z,99700.83
2018-07-21T10:21:20.510Z,99705.84
2018-07-21T10:26:29.621Z,99699.70
2018-07-21T10:31:33.417Z,99711.61
2018-07-21T10:36:40.118Z,99699.62
2018-07-21T10:41:44.611Z,99702.63
2018-07-21T10:46:49.819Z,99700.02
2018-07-21T10:51:53.876Z,99702.63
2018-07-21T10:57:00.122Z,99695.73
2018-07-21T11:02:04.226Z,99690.04
2018-07-21T11:07:08.058Z,99691.28
2018-07-21T11:12:12.045Z,99696.73
2018-07-21T11:17:16.905Z,99689.23
2018-07-21T11:22:24.016Z,99685.22
2018-07-21T11:27:28.129Z,99683.78
2018-07-21T11:32:32.252Z,99681.73
2018-07-21T11:37:39.296Z,99680.50
2018-07-21T11:42:43.541Z,99684.34
2018-07-21T11:47:51.316Z,99678.47
2018-07-21T11:52:57.278Z,99680.31
2018-07-21T11:58:02.723Z,99684.53
2018-07-21T12:03:08.716Z,99677.30
2018-07-21T12:13:28.256Z,99675.06
2018-07-21T12:18:33.859Z,99677.26
2018-07-21T12:23:40.327Z,99679.92
2018-07-21T12:28:50.554Z,99687.20
2018-07-21T12:33:55.684Z,99685.12
2018-07-21T12:39:00.362Z,99682.81
2018-07-21T12:44:04.846Z,99687.77
2018-07-21T12:49:09.300Z,99690.73
2018-07-21T12:54:13.472Z,99684.47
2018-07-21T12:59:20.147Z,99686.05
2018-07-21T13:04:27.600Z,99690.61
2018-07-21T13:09:31.750Z,99684.33
2018-07-21T13:14:36.661Z,99687.84
2018-07-21T13:19:40.566Z,99679.62
2018-07-21T13:24:44.602Z,99683.67
2018-07-21T13:29:48.570Z,99677.34
2018-07-21T13:34:52.735Z,99673.22
2018-07-21T13:39:57.571Z,99679.29
2018-07-21T13:45:08.324Z,99681.80
2018-07-21T13:50:13.340Z,99682.33
2018-07-21T13:55:17.512Z,99681.97
2018-07-21T14:00:21.503Z,99677.05
2018-07-21T14:05:25.368Z,99679.63
2018-07-21T14:10:30.719Z,99682.52
2018-07-21T14:15:34.753Z,99686.98
2018-07-21T14:20:38.632Z,99679.95
2018-07-21T14:25:43.016Z,99696.93
2018-07-21T14:30:50.531Z,99697.89
2018-07-21T14:36:00.722Z,99691.27
2018-07-21T14:41:04.493Z,99701.06
2018-07-21T14:46:08.944Z,99693.91
2018-07-21T14:51:12.998Z,99694.86
2018-07-21T14:56:18.315Z,99701.34
2018-07-21T15:01:23.433Z,99706.46
2018-07-21T15:06:27.941Z,99712.98
2018-07-21T15:11:31.466Z,99710.52
2018-07-21T15:16:35.119Z,99704.97
2018-07-21T15:21:38.793Z,99706.13
2018-07-21T15:26:43.012Z,99711.10
2018-07-21T15:31:48.903Z,99707.27
2018-07-21T15:36:52.603Z,99704.55
2018-07-21T15:41:56.651Z,99708.97
2018-07-21T15:47:00.295Z,99697.29
2018-07-21T15:52:03.861Z,99704.17
2018-07-21T15:57:08.407Z,99700.72
2018-07-21T16:02:13.332Z,99707.55
2018-07-21T16:07:17.210Z,99701.45
2018-07-21T16:12:21.205Z,99698.47
2018-07-21T16:17:24.992Z,99697.13
2018-07-21T16:22:28.594Z,99700.55
2018-07-21T16:27:32.160Z,99694.69
2018-07-21T16:32:35.810Z,99691.20
2018-07-21T16:37:39.437Z,99692.83
2018-07-21T16:42:43.627Z,99693.53
2018-07-21T16:47:47.526Z,99691.02
2018-07-21T16:52:51.939Z,99687.21
2018-07-21T16:57:55.694Z,99683.48
2018-07-21T17:02:59.395Z,99678.97
2018-07-21T17:08:03.218Z,99680.66
2018-07-21T17:13:06.766Z,99685.54
2018-07-21T17:18:10.391Z,99679.86
2018-07-21T17:23:14.680Z,99684.32
2018-07-21T17:28:18.230Z,99680.48
2018-07-21T17:33:22.250Z,99689.85
2018-07-21T17:38:26.335Z,99691.97
2018-07-21T17:43:30.034Z,99682.58
2018-07-21T17:48:33.699Z,99688.93
2018-07-21T17:53:37.309Z,99691.78
2018-07-21T17:58:40.958Z,99683.31
2018-07-21T18:03:44.666Z,99679.63
2018-07-21T18:08:48.626Z,99682.27
2018-07-21T18:13:52.264Z,99680.39
2018-07-21T18:18:55.859Z,99679.57
2018-07-21T18:23:59.405Z,99681.03
2018-07-21T18:29:03.025Z,99686.75
2018-07-21T18:34:07.221Z,99685.76
2018-07-21T18:39:12.044Z,99688.09
2018-07-21T18:44:15.746Z,99686.41
2018-07-21T18:49:19.824Z,99697.52
2018-07-21T18:54:23.414Z,99707.14
2018-07-21T18:59:27.042Z,99711.20
2018-07-21T19:04:30.664Z,99708.50
2018-07-21T19:09:34.532Z,99711.85
2018-07-21T19:14:38.250Z,99713.00
2018-07-21T19:19:47.178Z,99716.94
2018-07-21T19:24:50.751Z,99715.28
2018-07-21T19:29:54.323Z,99720.45
2018-07-21T19:34:58.143Z,99723.57
2018-07-21T19:40:08.539Z,99733.13
2018-07-21T19:45:12.618Z,99724.00
2018-07-21T19:50:16.203Z,99728.38
2018-07-21T19:55:19.878Z,99730.08
2018-07-21T20:00:23.987Z,99731.56
2018-07-21T20:05:27.875Z,99736.38
2018-07-21T20:10:31.390Z,99734.30
2018-07-21T20:15:35.463Z,99738.04
2018-07-21T20:20:39.588Z,99741.86
2018-07-21T20:25:43.421Z,99744.94
2018-07-21T20:30:47.104Z,99743.31
2018-07-21T20:35:50.698Z,99753.89
2018-07-21T20:40:54.326Z,99766.01
2018-07-21T20:45:57.912Z,99762.72
2018-07-21T20:51:05.999Z,99760.91
2018-07-21T20:56:10.079Z,99768.53
2018-07-21T21:01:13.643Z,99760.70
2018-07-21T21:06:17.281Z,99769.65
2018-07-21T21:11:21.051Z,99776.09
2018-07-21T21:16:24.963Z,99781.81
2018-07-21T21:21:29.134Z,99780.48
2018-07-21T21:26:33.150Z,99782.63
2018-07-21T21:31:36.736Z,99781.03
2018-07-21T21:36:40.858Z,99786.41
2018-07-21T21:41:44.738Z,99781.82
2018-07-21T21:46:48.878Z,99782.59
2018-07-21T21:51:52.395Z,99776.16
2018-07-21T21:56:56.206Z,99783.19
2018-07-21T22:01:59.691Z,99776.41
2018-07-21T22:07:03.358Z,99777.49
2018-07-21T22:12:06.941Z,99772.32
2018-07-21T22:17:10.499Z,99768.05
2018-07-21T22:22:14.148Z,99775.32
2018-07-21T22:27:17.925Z,99774.79
2018-07-21T22:32:21.403Z,99785.33
2018-07-21T22:37:24.962Z,99780.46
2018-07-21T22:42:28.473Z,99786.97
2018-07-21T22:47:31.954Z,99793.16
2018-07-21T22:52:35.516Z,99790.73
2018-07-21T22:57:39.117Z,99797.21
2018-07-21T23:02:46.902Z,99798.30
2018-07-21T23:07:50.385Z,99801.02
2018-07-21T23:12:54.199Z,99804.52
2018-07-21T23:17:57.833Z,99805.59
2018-07-21T23:23:01.369Z,99801.03
2018-07-21T23:28:04.961Z,99792.63
2018-07-21T23:33:08.473Z,99796.15
2018-07-21T23:38:12.057Z,99785.89
2018-07-21T23:43:15.642Z,99786.16
2018-07-21T23:48:20.239Z,99799.92
2018-07-21T23:53:23.823Z,99798.86
2018-07-21T23:58:27.462Z,99801.01
